MAPA DE AEROPUERTO

INFORMACIÓN METAR y TAF

METAR FOR LGAV
ADDS - METARS form results

(0539 UTC 10 August 2020)
Data provider http://aviationweather.gov/metar/data/
 
METAR text: LGAV 100520Z 36012G22KT 330V030 CAVOK 27/14 Q1010 NOSIG
Conditions at: LGAV (ATHENS/ELEF-VEN , GR) observed 0520 UTC 10 August 2020
Temperature: 27.0°C (81°F)
Dewpoint: 14.0°C (57°F) [RH = 45%]
Pressure (altimeter): 29.82 inches Hg (1010.0 mb)
Winds: from the N (360 degrees) at 14 MPH (12 knots; 6.2 m/s)
gusting to 25 MPH (22 knots; 11.3 m/s)
Visibility: 6 or more miles (10+ km)
Ceiling: ceiling and visibility are OK
Clouds: unknown
Weather: no significant weather observed at this time

METAR text: LGAV 100450Z 01013G23KT CAVOK 26/15 Q1010 NOSIG
Conditions at: LGAV (ATHENS/ELEF-VEN , GR) observed 0450 UTC 10 August 2020
Temperature: 26.0°C (79°F)
Dewpoint: 15.0°C (59°F) [RH = 51%]
Pressure (altimeter): 29.82 inches Hg (1010.0 mb)
Winds: from the N (10 degrees) at 15 MPH (13 knots; 6.7 m/s)
gusting to 26 MPH (23 knots; 11.8 m/s)
Visibility: 6 or more miles (10+ km)
Ceiling: ceiling and visibility are OK
Clouds: unknown
Weather: no significant weather observed at this time

Forecast for: LGAV (ATHENS/ELEF-VEN , GR)
Text: TAF LGAV 100500Z 1006/1106 36014KT 9999 FEW030
Forecast period: 0600 UTC 10 August 2020 to 0600 UTC 11 August 2020
Forecast type: FROM: standard forecast or significant change
Winds: from the N (360 degrees) at 16 MPH (14 knots; 7.2 m/s)
Visibility: 6 or more miles (10+ km)
Ceiling: at least 12,000 feet AGL
Clouds: few clouds at 3000 feet AGL
Weather: no significant weather forecast for this period
Text: TEMPO 1006/1014 01017G27KT
Forecast period: 0600 to 1400 UTC 10 August 2020
Forecast type: TEMPORARY: The following changes expected for less than half the time period
Winds: from the N (10 degrees) at 20 MPH (17 knots; 8.7 m/s)
gusting to 31 MPH (27 knots; 13.9 m/s)
Visibility: missing
Ceiling: unknown
Clouds: missing
Weather: no significant weather forecast for this period